Lancaster Junction, Pennsylvania
Current Conditions -  °F | °C
As of 7:53 PM on Saturday 25 Oct 2014 (Local Time) from KLNS Reporting Station
Clear Clear  
Wind Chill: 61°   Ceiling: Unl
Heat Index: 61°   Visibility: 10mi
Dew Point: 43°   Wind: 7mph
Humidity: 52%   Direction: 240°WSW
Pressure: 29.69"   Gusts: NA
Location:  40.1777°N, 76.4291°W
Report Text: KLNS 252353Z 24006KT 10SM CLR 16/06 A2969 RMK AO2 SLP053 T01610061 10200 20161 55008
Loading
Personal Weather Stations






























Interactive Weather Map
Tropical Storm Tracking
New forecast layout! Learn more

10-Day Weather Forecast

Advertisements
Track Severe Weather on mobile